Time;durP1;ratioP1;P1;durP2;ratioP2;P2;SDS_P1;SDS_P2;PMS_P1;PMS_P2;Temp;Humidity;BMP_temperature;BMP_pressure;BME280_temperature;BME280_humidity;BME280_pressure;Samples;Min_cycle;Max_cycle;Signal;HPM_P1;HPM_P2
2024/02/01 00:01:11;;;;;;;38.85;4.75;;;;;;;;;;6143842;23;20347;-50
2024/02/01 00:04:05;;;;;;;38.78;5.18;;;;;;;;;;6142814;23;20022;-53
2024/02/01 03:01:35;;;;;;;62.88;7.93;;;;;;;;;;6139187;23;20036;-61
2024/02/01 03:04:16;;;;;;;55.47;6.47;;;;;;;;;;6107875;23;20149;-61
2024/02/01 03:06:43;;;;;;;50.33;7.88;;;;;;;;;;6116806;23;20028;-64
2024/02/01 03:09:17;;;;;;;41.38;6.53;;;;;;;;;;6116689;23;20057;-61
2024/02/01 03:11:51;;;;;;;50.90;6.88;;;;;;;;;;6116750;23;20024;-65
2024/02/01 03:14:31;;;;;;;49.58;5.95;;;;;;;;;;6114048;23;20032;-64
2024/02/01 03:16:58;;;;;;;30.95;4.80;;;;;;;;;;6115489;23;20108;-64
2024/02/01 03:19:35;;;;;;;32.63;5.97;;;;;;;;;;6116369;23;20018;-65
2024/02/01 03:22:03;;;;;;;35.63;5.75;;;;;;;;;;6117226;23;20030;-64
2024/02/01 03:24:30;;;;;;;36.95;4.97;;;;;;;;;;6116762;23;20025;-65
2024/02/01 03:27:25;;;;;;;35.97;5.97;;;;;;;;;;6117642;23;20784;-59
2024/02/01 03:29:53;;;;;;;37.65;5.95;;;;;;;;;;6115379;23;20036;-58
2024/02/01 03:32:29;;;;;;;44.25;5.85;;;;;;;;;;6114797;23;20025;-59
2024/02/01 03:34:58;;;;;;;54.08;7.05;;;;;;;;;;6116453;23;20049;-62
2024/02/01 03:37:32;;;;;;;51.45;5.95;;;;;;;;;;6116340;23;20033;-65
2024/02/01 03:40:07;;;;;;;35.50;5.38;;;;;;;;;;6092506;23;20084;-53
2024/02/01 03:42:34;;;;;;;55.30;6.75;;;;;;;;;;6116485;23;20030;-51
2024/02/01 03:45:08;;;;;;;41.92;5.75;;;;;;;;;;6117604;23;20022;-51
2024/02/01 03:47:36;;;;;;;;;;;;;;;;;;6116680;23;20045;-48
2024/02/01 03:50:08;;;;;;;39.35;5.78;;;;;;;;;;6114705;23;19956;-51
2024/02/01 03:52:45;;;;;;;50.00;6.65;;;;;;;;;;6089222;23;20033;-50
2024/02/01 03:55:19;;;;;;;45.97;6.38;;;;;;;;;;6116584;23;20065;-59
2024/02/01 03:57:53;;;;;;;45.47;7.63;;;;;;;;;;6117191;23;20583;-59
2024/02/01 04:00:30;;;;;;;59.05;6.20;;;;;;;;;;6117187;23;20025;-59
2024/02/01 04:03:14;;;;;;;39.20;5.28;;;;;;;;;;6133735;23;20052;-59
2024/02/01 04:05:49;;;;;;;50.97;5.47;;;;;;;;;;6144912;23;20017;-61
2024/02/01 04:08:22;;;;;;;58.45;6.90;;;;;;;;;;6145214;23;20052;-57
2024/02/01 04:10:49;;;;;;;48.08;5.35;;;;;;;;;;6146128;23;20029;-59
2024/02/01 04:13:23;;;;;;;46.10;5.70;;;;;;;;;;6143733;23;20037;-59
2024/02/01 04:15:57;;;;;;;40.22;5.82;;;;;;;;;;6143968;23;20021;-58
2024/02/01 04:18:31;;;;;;;26.10;4.30;;;;;;;;;;6145994;23;20077;-59
2024/02/01 04:20:59;;;;;;;38.10;5.68;;;;;;;;;;6144061;23;20766;-59
2024/02/01 04:23:26;;;;;;;;;;;;;;;;;;6143559;23;20522;-52
2024/02/01 04:26:00;;;;;;;24.13;4.65;;;;;;;;;;6141890;23;20432;-54
2024/02/01 04:28:27;;;;;;;20.70;4.30;;;;;;;;;;6143000;23;20088;-53
2024/02/01 04:31:04;;;;;;;32.00;4.03;;;;;;;;;;6144836;23;20100;-50
2024/02/01 04:33:32;;;;;;;21.98;3.70;;;;;;;;;;6143456;23;20068;-62
2024/02/01 04:36:00;;;;;;;36.65;5.55;;;;;;;;;;6143834;23;20026;-61
2024/02/01 04:38:55;;;;;;;16.58;2.40;;;;;;;;;;6143189;23;20021;-62
2024/02/01 04:41:43;;;;;;;48.00;6.87;;;;;;;;;;6143459;23;20022;-62
2024/02/01 04:44:35;;;;;;;36.05;5.25;;;;;;;;;;6141137;23;20088;-62
2024/02/01 04:47:23;;;;;;;25.73;4.40;;;;;;;;;;6143543;23;20210;-62
2024/02/01 04:50:16;;;;;;;36.10;5.15;;;;;;;;;;6142845;23;20033;-54
2024/02/01 04:53:04;;;;;;;49.47;5.47;;;;;;;;;;6141193;23;20567;-50
2024/02/01 04:55:58;;;;;;;50.58;7.00;;;;;;;;;;6142156;23;20100;-50
2024/02/01 04:58:45;;;;;;;35.55;4.75;;;;;;;;;;6140641;23;20554;-51
2024/02/01 05:01:40;;;;;;;25.20;3.65;;;;;;;;;;6141520;23;20076;-64
2024/02/01 05:04:33;;;;;;;25.40;4.80;;;;;;;;;;6115512;23;20095;-64
2024/02/01 05:07:26;;;;;;;29.90;3.60;;;;;;;;;;6115628;23;20360;-65
2024/02/01 05:10:14;;;;;;;25.60;3.83;;;;;;;;;;6117170;23;20030;-65
2024/02/01 05:13:08;;;;;;;42.70;5.00;;;;;;;;;;6115697;23;20026;-65
2024/02/01 05:15:55;;;;;;;32.30;5.13;;;;;;;;;;6116473;23;20022;-65
2024/02/01 05:18:48;;;;;;;26.10;3.88;;;;;;;;;;6116041;23;20025;-64
2024/02/01 05:21:36;;;;;;;27.85;4.18;;;;;;;;;;6115486;23;20022;-65
2024/02/01 05:24:29;;;;;;;34.25;5.70;;;;;;;;;;6115730;23;20034;-65
2024/02/01 05:27:20;;;;;;;33.30;4.40;;;;;;;;;;6114535;23;20460;-65
2024/02/01 05:30:11;;;;;;;33.50;4.78;;;;;;;;;;6115832;23;20025;-63
2024/02/01 05:33:00;;;;;;;31.20;4.63;;;;;;;;;;6114999;23;20040;-59
2024/02/01 05:35:53;;;;;;;35.05;4.88;;;;;;;;;;6115322;23;20377;-59
2024/02/01 05:38:47;;;;;;;28.52;4.28;;;;;;;;;;6116363;23;20048;-59
2024/02/01 05:41:41;;;;;;;32.40;5.22;;;;;;;;;;6113399;23;20022;-60
2024/02/01 05:44:29;;;;;;;46.38;6.30;;;;;;;;;;6112563;23;20057;-60
2024/02/01 05:47:22;;;;;;;35.00;4.40;;;;;;;;;;6116409;23;20029;-60
2024/02/01 05:50:13;;;;;;;40.88;4.57;;;;;;;;;;6111221;23;20108;-59
2024/02/01 05:53:09;;;;;;;22.25;3.85;;;;;;;;;;6113535;23;20495;-59
2024/02/01 05:55:54;;;;;;;32.95;3.95;;;;;;;;;;6113896;23;20701;-60
2024/02/01 05:58:48;;;;;;;31.77;5.25;;;;;;;;;;6114866;23;20018;-64
2024/02/01 06:01:35;;;;;;;11.95;2.97;;;;;;;;;;6111406;23;20089;-62
2024/02/01 06:04:36;;;;;;;30.40;4.70;;;;;;;;;;6118479;23;20022;-62
2024/02/01 06:07:25;;;;;;;26.80;3.83;;;;;;;;;;6119412;23;20366;-62
2024/02/01 06:10:17;;;;;;;23.80;3.83;;;;;;;;;;6118136;23;20069;-62
2024/02/01 06:13:06;;;;;;;22.70;3.47;;;;;;;;;;6117394;23;20022;-61
2024/02/01 06:15:59;;;;;;;17.10;4.15;;;;;;;;;;6120039;23;20022;-64
2024/02/01 06:18:46;;;;;;;20.42;3.25;;;;;;;;;;6117891;23;20037;-63
2024/02/01 06:21:41;;;;;;;10.77;2.13;;;;;;;;;;6117561;23;20094;-64
2024/02/01 06:24:27;;;;;;;24.45;2.80;;;;;;;;;;6116924;23;20029;-64
2024/02/01 06:27:21;;;;;;;9.38;1.70;;;;;;;;;;6118067;23;20029;-62
2024/02/01 06:30:10;;;;;;;21.83;2.92;;;;;;;;;;6116917;23;20072;-62
2024/02/01 06:33:03;;;;;;;16.20;3.58;;;;;;;;;;6117516;23;20097;-63
2024/02/01 06:35:53;;;;;;;19.23;3.42;;;;;;;;;;6116629;23;20030;-63
2024/02/01 06:41:28;;;;;;;21.83;3.58;;;;;;;;;;6117458;23;20369;-63
2024/02/01 06:44:22;;;;;;;20.33;3.08;;;;;;;;;;6118083;23;20061;-65
2024/02/01 06:47:11;;;;;;;22.02;2.78;;;;;;;;;;6117538;23;20022;-64
2024/02/01 06:50:15;;;;;;;18.65;2.45;;;;;;;;;;6116613;23;20026;-63
2024/02/01 06:52:56;;;;;;;16.08;2.47;;;;;;;;;;6116270;23;20044;-64
2024/02/01 06:55:54;;;;;;;20.77;3.67;;;;;;;;;;6117198;23;20360;-64
2024/02/01 07:01:51;;;;;;;15.25;3.40;;;;;;;;;;6067226;23;20033;-59
2024/02/01 07:04:41;;;;;;;14.90;3.47;;;;;;;;;;6116315;23;20076;-60
2024/02/01 07:07:29;;;;;;;24.05;3.22;;;;;;;;;;6117766;23;20026;-59
2024/02/01 07:10:16;;;;;;;24.88;3.67;;;;;;;;;;6116977;23;20026;-59
2024/02/01 07:13:21;;;;;;;28.75;3.70;;;;;;;;;;6117986;23;20021;-51
2024/02/01 07:16:13;;;;;;;12.82;2.88;;;;;;;;;;6117996;23;20022;-54
2024/02/01 07:19:09;;;;;;;23.02;4.70;;;;;;;;;;6116485;23;20104;-49
2024/02/01 07:58:38;;;;;;;28.58;5.22;;;;;;;;;;6117759;23;20022;-58
2024/02/01 08:01:34;;;;;;;35.22;4.93;;;;;;;;;;6116888;23;20101;-59
2024/02/01 08:07:43;;;;;;;20.70;3.33;;;;;;;;;;6142648;23;20025;-59
2024/02/01 08:10:01;;;;;;;29.48;4.15;;;;;;;;;;6146777;23;20084;-62
2024/02/01 08:12:55;;;;;;;30.75;5.18;;;;;;;;;;6147013;23;20150;-61
2024/02/01 08:15:44;;;;;;;26.27;4.13;;;;;;;;;;6146004;23;20029;-62
2024/02/01 08:18:37;;;;;;;28.17;3.63;;;;;;;;;;6145840;23;20460;-62
2024/02/01 08:21:26;;;;;;;27.52;4.97;;;;;;;;;;6145949;23;20029;-55
2024/02/01 08:24:17;;;;;;;26.50;3.17;;;;;;;;;;6144758;23;20030;-62
2024/02/01 08:27:05;;;;;;;12.65;2.72;;;;;;;;;;6145610;23;20021;-63
2024/02/01 08:30:12;;;;;;;26.10;3.92;;;;;;;;;;6143564;23;20037;-62
2024/02/01 08:32:50;;;;;;;23.80;3.60;;;;;;;;;;6139748;23;20025;-62
2024/02/01 08:35:44;;;;;;;17.30;4.10;;;;;;;;;;6145325;23;20092;-61
2024/02/01 08:38:34;;;;;;;22.50;3.13;;;;;;;;;;6146427;23;20100;-64
2024/02/01 08:41:35;;;;;;;23.05;3.92;;;;;;;;;;6145289;23;20035;-64
2024/02/01 08:44:16;;;;;;;17.90;3.55;;;;;;;;;;6143436;23;20026;-65
2024/02/01 08:47:13;;;;;;;20.90;3.10;;;;;;;;;;6146287;23;20024;-65
2024/02/01 08:50:06;;;;;;;22.63;4.32;;;;;;;;;;6146338;23;20424;-64
2024/02/01 08:52:52;;;;;;;15.80;5.15;;;;;;;;;;6147467;23;20036;-62
2024/02/01 08:55:38;;;;;;;23.80;3.40;;;;;;;;;;6146674;23;20475;-62
2024/02/01 08:58:31;;;;;;;12.70;2.50;;;;;;;;;;6148747;23;20029;-62
2024/02/01 09:01:24;;;;;;;22.98;3.42;;;;;;;;;;6149576;23;20080;-62
2024/02/01 09:04:23;;;;;;;17.00;3.03;;;;;;;;;;6147052;23;20025;-62
2024/02/01 09:07:09;;;;;;;19.60;3.10;;;;;;;;;;6149112;23;20341;-64
2024/02/01 09:10:04;;;;;;;21.92;4.20;;;;;;;;;;6148135;23;20368;-62
2024/02/01 09:12:51;;;;;;;16.88;2.50;;;;;;;;;;6147679;23;20026;-63
2024/02/01 09:15:44;;;;;;;24.30;3.35;;;;;;;;;;6147067;23;20080;-62
2024/02/01 09:18:32;;;;;;;20.30;4.43;;;;;;;;;;6147820;23;20021;-63
2024/02/01 09:21:25;;;;;;;22.52;3.78;;;;;;;;;;6146720;23;20539;-49
2024/02/01 09:24:13;;;;;;;19.05;3.92;;;;;;;;;;6146572;23;20091;-51
2024/02/01 09:27:06;;;;;;;20.58;2.80;;;;;;;;;;6146742;23;20052;-52
2024/02/01 09:29:54;;;;;;;23.35;3.60;;;;;;;;;;6146427;23;20899;-50
2024/02/01 09:32:49;;;;;;;15.55;2.92;;;;;;;;;;6146190;23;20400;-53
2024/02/01 09:35:36;;;;;;;14.18;2.40;;;;;;;;;;6146688;23;20026;-59
2024/02/01 09:38:29;;;;;;;18.17;2.88;;;;;;;;;;6147874;23;20048;-59
2024/02/01 09:41:20;;;;;;;23.85;3.50;;;;;;;;;;6147750;23;20017;-58
2024/02/01 09:44:11;;;;;;;12.32;2.83;;;;;;;;;;6146956;23;20656;-59
2024/02/01 09:47:07;;;;;;;15.18;3.00;;;;;;;;;;6146577;23;20017;-63
2024/02/01 09:49:54;;;;;;;21.25;4.07;;;;;;;;;;6146742;23;20352;-59
2024/02/01 09:52:50;;;;;;;13.15;2.60;;;;;;;;;;6147238;23;20328;-59
2024/02/01 09:55:37;;;;;;;17.42;3.30;;;;;;;;;;6147388;23;20026;-59
2024/02/01 09:58:32;;;;;;;21.83;3.15;;;;;;;;;;6149060;23;20037;-58
2024/02/01 10:01:17;;;;;;;15.73;3.10;;;;;;;;;;6145822;23;20021;-59
2024/02/01 10:04:18;;;;;;;17.10;3.03;;;;;;;;;;6147442;23;20096;-65
2024/02/01 10:07:12;;;;;;;22.83;3.20;;;;;;;;;;6146599;23;20079;-65
2024/02/01 10:10:06;;;;;;;20.98;3.40;;;;;;;;;;6144000;23;20025;-65
2024/02/01 10:12:59;;;;;;;19.17;3.03;;;;;;;;;;6146399;23;20053;-64
2024/02/01 10:15:47;;;;;;;23.75;3.35;;;;;;;;;;6146276;23;20077;-53
2024/02/01 10:18:41;;;;;;;22.75;3.38;;;;;;;;;;6146239;23;20076;-62
2024/02/01 10:21:29;;;;;;;19.45;3.38;;;;;;;;;;6146906;23;20096;-62
2024/02/01 10:24:26;;;;;;;28.60;3.97;;;;;;;;;;6146153;23;20750;-61
2024/02/01 10:27:13;;;;;;;19.77;3.20;;;;;;;;;;6145169;23;20455;-62
2024/02/01 10:30:09;;;;;;;12.68;2.42;;;;;;;;;;6145182;23;20084;-62
2024/02/01 10:32:57;;;;;;;26.15;2.58;;;;;;;;;;6145229;23;20021;-61
2024/02/01 10:35:55;;;;;;;12.50;1.98;;;;;;;;;;6146194;23;20056;-61
2024/02/01 10:38:53;;;;;;;17.25;3.60;;;;;;;;;;6143458;23;20025;-62
2024/02/01 10:41:39;;;;;;;20.02;3.40;;;;;;;;;;6144175;23;20394;-63
2024/02/01 10:44:33;;;;;;;22.25;4.13;;;;;;;;;;6145708;23;20022;-51
2024/02/01 10:47:21;;;;;;;16.02;3.05;;;;;;;;;;6147033;23;20025;-64
2024/02/01 10:50:16;;;;;;;23.23;3.38;;;;;;;;;;6145682;23;20030;-64
2024/02/01 10:53:05;;;;;;;16.03;2.17;;;;;;;;;;6146707;23;20029;-64
2024/02/01 10:55:59;;;;;;;15.15;3.17;;;;;;;;;;6145750;23;20021;-64
2024/02/01 10:58:53;;;;;;;16.48;3.90;;;;;;;;;;6146052;23;20028;-63
2024/02/01 11:01:47;;;;;;;11.80;3.10;;;;;;;;;;6126137;23;20471;-58
2024/02/01 11:04:42;;;;;;;18.77;3.47;;;;;;;;;;6146514;23;20025;-59
2024/02/01 11:07:35;;;;;;;14.88;3.45;;;;;;;;;;6146880;23;20022;-57
2024/02/01 11:10:24;;;;;;;13.57;3.63;;;;;;;;;;6145290;23;20026;-51
2024/02/01 11:13:27;;;;;;;20.60;2.60;;;;;;;;;;6145525;23;20021;-58
2024/02/01 11:16:11;;;;;;;35.10;4.75;;;;;;;;;;6143162;23;20025;-50
2024/02/01 11:19:10;;;;;;;16.50;3.38;;;;;;;;;;6145766;23;20029;-48
2024/02/01 11:22:04;;;;;;;20.47;3.37;;;;;;;;;;6146371;23;20025;-52
2024/02/01 11:25:04;;;;;;;18.95;3.78;;;;;;;;;;6144305;23;20069;-53
2024/02/01 11:27:52;;;;;;;16.42;2.88;;;;;;;;;;6145664;23;20383;-51
2024/02/01 11:30:52;;;;;;;11.68;2.83;;;;;;;;;;6144500;23;20033;-59
2024/02/01 11:33:48;;;;;;;19.88;4.13;;;;;;;;;;6145312;23;20029;-60
2024/02/01 11:36:43;;;;;;;25.70;3.80;;;;;;;;;;6144346;23;20021;-59
2024/02/01 11:39:30;;;;;;;22.33;3.15;;;;;;;;;;6144542;23;20413;-54
2024/02/01 11:42:48;;;;;;;16.13;3.80;;;;;;;;;;6145656;23;20052;-61
2024/02/01 11:45:39;;;;;;;16.73;3.55;;;;;;;;;;6143847;23;20032;-61
2024/02/01 11:48:34;;;;;;;19.60;2.67;;;;;;;;;;6145369;23;20494;-61
2024/02/01 11:51:21;;;;;;;17.00;3.30;;;;;;;;;;6144311;23;20084;-61
2024/02/01 11:54:15;;;;;;;19.40;2.97;;;;;;;;;;6144682;23;20029;-61
2024/02/01 11:57:02;;;;;;;17.65;3.42;;;;;;;;;;6145662;23;20439;-61
2024/02/01 11:59:56;;;;;;;18.75;3.83;;;;;;;;;;6144235;23;20022;-61
2024/02/01 12:02:59;;;;;;;22.30;3.10;;;;;;;;;;6144164;23;20475;-61
2024/02/01 12:06:02;;;;;;;26.38;4.43;;;;;;;;;;6144988;23;20032;-61
2024/02/01 12:08:50;;;;;;;17.05;3.20;;;;;;;;;;6145768;23;20021;-58
2024/02/01 12:11:45;;;;;;;25.90;3.75;;;;;;;;;;6145508;23;20471;-65
2024/02/01 12:14:33;;;;;;;20.95;3.42;;;;;;;;;;6145976;23;20025;-65
2024/02/01 12:17:27;;;;;;;24.55;4.20;;;;;;;;;;6145690;23;20025;-67
2024/02/01 12:20:15;;;;;;;23.42;3.95;;;;;;;;;;6144481;23;20739;-66
2024/02/01 12:23:11;;;;;;;19.15;3.53;;;;;;;;;;6146565;23;20053;-67
2024/02/01 12:25:58;;;;;;;20.60;3.70;;;;;;;;;;6148047;23;20032;-58
2024/02/01 12:28:55;;;;;;;27.38;4.38;;;;;;;;;;6147858;23;20475;-58
2024/02/01 12:31:43;;;;;;;18.08;3.42;;;;;;;;;;6145984;23;20371;-58
2024/02/01 12:34:37;;;;;;;27.30;4.88;;;;;;;;;;6147503;23;20022;-58
2024/02/01 12:37:23;;;;;;;25.30;4.65;;;;;;;;;;6145910;23;20728;-61
2024/02/01 12:40:17;;;;;;;24.77;4.40;;;;;;;;;;6146493;23;20328;-64
2024/02/01 12:43:05;;;;;;;22.60;4.60;;;;;;;;;;6147018;23;20463;-64
2024/02/01 12:45:58;;;;;;;20.80;3.22;;;;;;;;;;6145919;23;20025;-64
2024/02/01 12:48:45;;;;;;;21.13;3.88;;;;;;;;;;6147736;23;20025;-63
2024/02/01 12:51:41;;;;;;;26.98;5.05;;;;;;;;;;6145544;23;20025;-64
2024/02/01 12:54:28;;;;;;;19.45;4.03;;;;;;;;;;6147183;23;20057;-66
2024/02/01 12:57:21;;;;;;;22.48;3.97;;;;;;;;;;6146800;23;20021;-66
2024/02/01 13:00:11;;;;;;;17.77;3.00;;;;;;;;;;6145504;23;20381;-66
2024/02/01 13:03:10;;;;;;;25.58;4.22;;;;;;;;;;6146698;23;20018;-67
2024/02/01 13:06:03;;;;;;;24.65;3.80;;;;;;;;;;6146469;23;20088;-64
2024/02/01 13:08:56;;;;;;;28.83;4.63;;;;;;;;;;6146489;23;20640;-57
2024/02/01 13:11:44;;;;;;;18.83;3.88;;;;;;;;;;6147418;23;20087;-58
2024/02/01 13:14:37;;;;;;;27.65;5.43;;;;;;;;;;6146315;23;20038;-58
2024/02/01 13:17:28;;;;;;;20.20;3.00;;;;;;;;;;6146085;23;20096;-57
2024/02/01 13:20:21;;;;;;;28.75;5.00;;;;;;;;;;6147395;23;20029;-54
2024/02/01 13:23:09;;;;;;;25.98;4.93;;;;;;;;;;6148323;23;20109;-64
2024/02/01 13:26:02;;;;;;;32.45;4.53;;;;;;;;;;6147343;23;20084;-64
2024/02/01 13:28:49;;;;;;;24.83;4.53;;;;;;;;;;6147466;23;20028;-64
2024/02/01 13:31:47;;;;;;;25.67;4.03;;;;;;;;;;6145872;23;20171;-65
2024/02/01 13:34:37;;;;;;;34.10;5.43;;;;;;;;;;6144739;23;20514;-60
2024/02/01 13:37:25;;;;;;;29.40;4.45;;;;;;;;;;6147772;23;20252;-52
2024/02/01 13:40:16;;;;;;;29.88;4.18;;;;;;;;;;6144935;23;20029;-54
2024/02/01 13:43:12;;;;;;;26.00;4.47;;;;;;;;;;6145466;23;20391;-52
2024/02/01 13:46:00;;;;;;;27.73;4.07;;;;;;;;;;6145366;23;20084;-52
2024/02/01 13:48:53;;;;;;;21.85;3.70;;;;;;;;;;6146096;23;20017;-53
2024/02/01 13:51:41;;;;;;;22.83;3.50;;;;;;;;;;6145100;23;20871;-54
2024/02/01 13:54:41;;;;;;;29.88;4.47;;;;;;;;;;6145567;23;20053;-52
2024/02/01 13:57:28;;;;;;;30.88;4.15;;;;;;;;;;6145586;23;20026;-54
2024/02/01 14:00:23;;;;;;;27.10;4.25;;;;;;;;;;6144618;23;20404;-50
2024/02/01 14:03:31;;;;;;;29.33;4.40;;;;;;;;;;6145155;23;20033;-61
2024/02/01 14:06:25;;;;;;;21.20;3.85;;;;;;;;;;6145393;23;20388;-58
2024/02/01 14:09:14;;;;;;;26.20;3.83;;;;;;;;;;6145039;23;20096;-59
2024/02/01 14:12:06;;;;;;;22.45;3.63;;;;;;;;;;6147025;23;20025;-59
2024/02/01 14:14:54;;;;;;;24.33;4.25;;;;;;;;;;6145807;23;20419;-56
2024/02/01 14:17:47;;;;;;;19.58;3.05;;;;;;;;;;6145830;23;20211;-56
2024/02/01 14:20:41;;;;;;;23.02;4.13;;;;;;;;;;6146616;23;20029;-50
2024/02/01 14:23:30;;;;;;;23.67;3.42;;;;;;;;;;6147339;23;20027;-50
2024/02/01 14:26:22;;;;;;;18.30;3.40;;;;;;;;;;6146956;23;20080;-51
2024/02/01 14:29:10;;;;;;;27.42;3.97;;;;;;;;;;6146208;23;20353;-48
2024/02/01 14:32:06;;;;;;;25.83;3.95;;;;;;;;;;6145481;23;20033;-54
2024/02/01 14:34:52;;;;;;;22.50;4.15;;;;;;;;;;6144111;23;20100;-63
2024/02/01 14:37:44;;;;;;;27.15;3.78;;;;;;;;;;6145760;23;20040;-63
2024/02/01 14:40:32;;;;;;;23.50;4.72;;;;;;;;;;6145193;23;20100;-64
2024/02/01 14:43:25;;;;;;;21.95;3.30;;;;;;;;;;6145391;23;20348;-63
2024/02/01 14:46:13;;;;;;;19.98;3.53;;;;;;;;;;6145148;23;20080;-64
2024/02/01 14:49:07;;;;;;;17.05;3.40;;;;;;;;;;6146173;23;20073;-64
2024/02/01 14:51:54;;;;;;;21.50;3.47;;;;;;;;;;6143451;23;20025;-63
2024/02/01 14:54:50;;;;;;;21.52;3.85;;;;;;;;;;6146671;23;20022;-63
2024/02/01 14:57:45;;;;;;;30.55;3.90;;;;;;;;;;6144088;23;20104;-64
2024/02/01 15:00:39;;;;;;;17.20;3.97;;;;;;;;;;6144803;23;20029;-57
2024/02/01 15:03:32;;;;;;;15.77;3.65;;;;;;;;;;6144868;23;20083;-66
2024/02/01 15:06:32;;;;;;;20.35;3.53;;;;;;;;;;6145107;23;20081;-66
2024/02/01 15:09:19;;;;;;;15.60;2.72;;;;;;;;;;6142981;23;20028;-66
2024/02/01 15:12:13;;;;;;;23.52;4.07;;;;;;;;;;6143072;23;20029;-66
2024/02/01 15:15:01;;;;;;;21.23;3.55;;;;;;;;;;6146144;23;20407;-66
2024/02/01 15:17:55;;;;;;;23.23;3.90;;;;;;;;;;6146911;23;20021;-64
2024/02/01 15:20:42;;;;;;;20.25;3.97;;;;;;;;;;6143804;23;20031;-64
2024/02/01 15:23:35;;;;;;;25.35;3.90;;;;;;;;;;6147532;23;20025;-63
2024/02/01 15:26:23;;;;;;;15.75;3.63;;;;;;;;;;6146167;23;20021;-57
2024/02/01 15:29:16;;;;;;;24.77;4.35;;;;;;;;;;6145883;23;20159;-53
2024/02/01 15:32:04;;;;;;;15.02;3.10;;;;;;;;;;6144360;23;20057;-56
2024/02/01 15:34:57;;;;;;;18.90;3.67;;;;;;;;;;6145103;23;20043;-58
2024/02/01 15:37:44;;;;;;;17.25;2.88;;;;;;;;;;6144411;23;20025;-58
2024/02/01 15:40:38;;;;;;;18.88;3.22;;;;;;;;;;6145049;23;20100;-57
2024/02/01 15:43:26;;;;;;;15.20;3.58;;;;;;;;;;6144900;23;20080;-55
2024/02/01 15:46:19;;;;;;;14.27;3.05;;;;;;;;;;6145922;23;20018;-66
2024/02/01 15:49:07;;;;;;;17.83;3.17;;;;;;;;;;6146365;23;20159;-66
2024/02/01 15:52:00;;;;;;;19.30;3.30;;;;;;;;;;6144547;23;20084;-66
2024/02/01 15:54:48;;;;;;;18.67;2.65;;;;;;;;;;6145071;23;20471;-61
2024/02/01 15:57:41;;;;;;;15.63;2.70;;;;;;;;;;6144448;23;20578;-66
2024/02/01 16:00:29;;;;;;;15.10;3.15;;;;;;;;;;6144476;23;20021;-61
2024/02/01 16:03:36;;;;;;;18.63;2.63;;;;;;;;;;6146326;23;20021;-61
2024/02/01 16:06:30;;;;;;;19.60;3.88;;;;;;;;;;6145629;23;20068;-61
2024/02/01 16:09:24;;;;;;;14.48;2.67;;;;;;;;;;6146496;23;20479;-61
2024/02/01 16:12:17;;;;;;;16.70;2.58;;;;;;;;;;6147011;23;20029;-62
2024/02/01 16:15:19;;;;;;;14.52;3.13;;;;;;;;;;6148169;23;20120;-60
2024/02/01 16:18:05;;;;;;;11.43;2.65;;;;;;;;;;6147032;23;20030;-60
2024/02/01 16:21:00;;;;;;;15.25;2.42;;;;;;;;;;6147212;23;20467;-60
2024/02/01 16:23:47;;;;;;;16.85;2.45;;;;;;;;;;6147488;23;20894;-61
2024/02/01 16:26:41;;;;;;;13.05;3.05;;;;;;;;;;6146953;23;20030;-54
2024/02/01 16:29:30;;;;;;;17.40;2.85;;;;;;;;;;6147862;23;20025;-49
2024/02/01 16:32:24;;;;;;;15.70;2.53;;;;;;;;;;6146951;23;20029;-50
2024/02/01 16:35:30;;;;;;;18.10;2.47;;;;;;;;;;6145504;23;20033;-51
2024/02/01 16:38:30;;;;;;;17.33;2.85;;;;;;;;;;6147443;23;20021;-52
2024/02/01 16:41:37;;;;;;;15.98;2.85;;;;;;;;;;6146227;23;20022;-54
2024/02/01 16:44:46;;;;;;;24.15;2.92;;;;;;;;;;6147593;23;20408;-62
2024/02/01 16:47:43;;;;;;;14.93;2.85;;;;;;;;;;6147973;23;20021;-62
2024/02/01 16:50:38;;;;;;;19.35;2.72;;;;;;;;;;6146077;23;20030;-63
2024/02/01 16:53:35;;;;;;;15.40;2.55;;;;;;;;;;6148319;23;20032;-54
2024/02/01 16:56:30;;;;;;;17.60;3.53;;;;;;;;;;6145991;23;20029;-53
2024/02/01 16:59:16;;;;;;;13.27;2.95;;;;;;;;;;6146357;23;20033;-55
2024/02/01 17:02:40;;;;;;;13.48;1.98;;;;;;;;;;6146441;23;20324;-55
2024/02/01 17:05:36;;;;;;;21.30;2.67;;;;;;;;;;6112637;23;20022;-54
2024/02/01 17:08:49;;;;;;;14.82;2.45;;;;;;;;;;6118172;23;20022;-54
2024/02/01 17:11:36;;;;;;;17.48;2.85;;;;;;;;;;6119836;23;20359;-61
2024/02/01 17:14:33;;;;;;;22.15;3.38;;;;;;;;;;6120370;23;20028;-61
2024/02/01 17:17:34;;;;;;;15.48;2.45;;;;;;;;;;6118406;23;20022;-61
2024/02/01 17:20:30;;;;;;;15.27;2.30;;;;;;;;;;6116359;23;20022;-63
2024/02/01 17:23:17;;;;;;;14.73;2.30;;;;;;;;;;6117441;23;20025;-60
2024/02/01 17:26:20;;;;;;;9.30;1.98;;;;;;;;;;6117850;23;20032;-54
2024/02/01 17:29:05;;;;;;;17.63;2.30;;;;;;;;;;6117121;23;20030;-52
2024/02/01 17:31:58;;;;;;;14.15;2.50;;;;;;;;;;6117265;23;20026;-51
2024/02/01 17:34:45;;;;;;;17.35;2.97;;;;;;;;;;6116111;23;20542;-50
2024/02/01 17:37:42;;;;;;;9.38;2.33;;;;;;;;;;6116488;23;20467;-54
2024/02/01 17:40:27;;;;;;;17.27;2.67;;;;;;;;;;6116471;23;20025;-61
2024/02/01 17:43:21;;;;;;;13.60;2.60;;;;;;;;;;6116656;23;20337;-61
2024/02/01 17:46:20;;;;;;;14.15;3.08;;;;;;;;;;6119105;23;20022;-61
2024/02/01 17:49:24;;;;;;;18.30;2.15;;;;;;;;;;6118245;23;20026;-52
2024/02/01 17:52:32;;;;;;;14.77;2.17;;;;;;;;;;6118460;23;20043;-61
2024/02/01 17:55:52;;;;;;;16.98;2.33;;;;;;;;;;6119336;23;20026;-61
2024/02/01 17:58:47;;;;;;;18.55;2.60;;;;;;;;;;6118645;23;20084;-61
2024/02/01 18:01:36;;;;;;;13.43;3.20;;;;;;;;;;6116411;23;20041;-61
2024/02/01 18:04:43;;;;;;;12.98;2.53;;;;;;;;;;6131357;23;20022;-62
2024/02/01 18:07:32;;;;;;;10.57;2.47;;;;;;;;;;6146158;23;20364;-61
2024/02/01 18:10:28;;;;;;;19.27;3.03;;;;;;;;;;6147415;23;20021;-61
2024/02/01 18:13:23;;;;;;;20.20;2.60;;;;;;;;;;6146771;23;20353;-60
2024/02/01 18:16:13;;;;;;;20.00;3.33;;;;;;;;;;6147512;23;20028;-61
2024/02/01 18:19:05;;;;;;;22.98;3.33;;;;;;;;;;6147606;23;20077;-60
2024/02/01 18:21:52;;;;;;;15.60;2.45;;;;;;;;;;6144177;23;20337;-53
2024/02/01 18:24:49;;;;;;;21.65;3.10;;;;;;;;;;6146326;23;20087;-53
2024/02/01 18:27:40;;;;;;;21.13;3.67;;;;;;;;;;6147588;23;20030;-47
2024/02/01 18:30:43;;;;;;;22.20;2.63;;;;;;;;;;6147710;23;20029;-53
2024/02/01 18:33:28;;;;;;;23.95;3.22;;;;;;;;;;6141499;23;20026;-52
2024/02/01 18:36:27;;;;;;;25.70;3.40;;;;;;;;;;6144399;23;20033;-67
2024/02/01 18:39:20;;;;;;;20.45;2.67;;;;;;;;;;6143975;23;20126;-66
2024/02/01 18:42:24;;;;;;;22.42;2.67;;;;;;;;;;6145418;23;20025;-65
2024/02/01 18:45:29;;;;;;;16.27;2.55;;;;;;;;;;6144643;23;20032;-66
2024/02/01 18:48:25;;;;;;;15.88;2.63;;;;;;;;;;6143886;23;20345;-55
2024/02/01 18:51:16;;;;;;;21.50;3.05;;;;;;;;;;6143638;23;20025;-60
2024/02/01 18:54:09;;;;;;;23.95;2.95;;;;;;;;;;6144842;23;20025;-61
2024/02/01 18:56:58;;;;;;;26.90;2.83;;;;;;;;;;6143635;23;20128;-61
2024/02/01 18:59:52;;;;;;;18.90;2.60;;;;;;;;;;6144153;23;20536;-62
2024/02/01 19:02:54;;;;;;;21.07;2.97;;;;;;;;;;6141922;23;20017;-62
2024/02/01 19:05:53;;;;;;;20.42;2.70;;;;;;;;;;6143549;23;20264;-61
2024/02/01 19:08:41;;;;;;;17.45;2.50;;;;;;;;;;6142215;23;20037;-61
2024/02/01 19:11:40;;;;;;;13.88;2.75;;;;;;;;;;6142114;23;20089;-61
2024/02/01 19:14:33;;;;;;;18.00;2.83;;;;;;;;;;6142716;23;20056;-63
2024/02/01 19:17:32;;;;;;;25.83;3.42;;;;;;;;;;6142973;23;20025;-60
2024/02/01 19:20:20;;;;;;;23.42;2.72;;;;;;;;;;6143679;23;20534;-60
2024/02/01 19:23:18;;;;;;;24.25;4.55;;;;;;;;;;6143423;23;20032;-59
2024/02/01 19:26:06;;;;;;;26.08;3.30;;;;;;;;;;6143434;23;20036;-59
2024/02/01 19:29:04;;;;;;;19.45;3.33;;;;;;;;;;6141912;23;20021;-57
2024/02/01 19:31:48;;;;;;;18.03;3.17;;;;;;;;;;6139287;23;20025;-59
2024/02/01 19:34:42;;;;;;;17.20;2.92;;;;;;;;;;6141588;23;20463;-58
2024/02/01 19:37:45;;;;;;;16.35;3.75;;;;;;;;;;6143497;23;20326;-58
2024/02/01 19:40:38;;;;;;;18.13;2.70;;;;;;;;;;6141167;23;20029;-58
2024/02/01 19:43:32;;;;;;;15.95;3.40;;;;;;;;;;6143106;23;20026;-61
2024/02/01 19:46:21;;;;;;;25.02;3.53;;;;;;;;;;6140668;23;20471;-64
2024/02/01 19:49:13;;;;;;;20.10;3.20;;;;;;;;;;6142465;23;20040;-64
2024/02/01 19:52:01;;;;;;;22.88;3.78;;;;;;;;;;6143601;23;20053;-63
2024/02/01 19:54:54;;;;;;;22.63;4.03;;;;;;;;;;6143912;23;20033;-63
2024/02/01 19:57:41;;;;;;;24.60;3.17;;;;;;;;;;6142636;23;20076;-63
2024/02/01 20:00:35;;;;;;;24.30;4.18;;;;;;;;;;6143235;23;20076;-55
2024/02/01 20:03:24;;;;;;;18.67;3.42;;;;;;;;;;6144173;23;20704;-60
2024/02/01 20:06:26;;;;;;;20.10;3.05;;;;;;;;;;6114734;23;20030;-59
2024/02/01 20:09:12;;;;;;;27.75;3.70;;;;;;;;;;6113290;23;20511;-58
2024/02/01 20:12:09;;;;;;;27.10;4.55;;;;;;;;;;6114768;23;20022;-60
2024/02/01 20:14:54;;;;;;;27.15;4.30;;;;;;;;;;6112299;23;20032;-60
2024/02/01 20:17:47;;;;;;;19.13;3.40;;;;;;;;;;6111701;23;20057;-61
2024/02/01 20:20:35;;;;;;;26.38;4.00;;;;;;;;;;6112400;23;20106;-62
2024/02/01 20:23:28;;;;;;;23.55;3.97;;;;;;;;;;6111869;23;20030;-61
2024/02/01 20:26:26;;;;;;;23.90;3.90;;;;;;;;;;6112967;23;20038;-61
2024/02/01 20:29:13;;;;;;;19.88;3.60;;;;;;;;;;6112174;23;20030;-61